sensor_id;sensor_type;location;lat;lon;timestamp;pressure;altitude;pressure_sealevel;temperature;humidity
77321;BME280;66382;52.252;8.780;2023-11-19T00:00:06;99918.69;;;9.02;76.75
77321;BME280;66382;52.252;8.780;2023-11-19T00:02:31;99915.00;;;9.03;76.78
77321;BME280;66382;52.252;8.780;2023-11-19T00:04:57;99911.94;;;9.06;76.67
77321;BME280;66382;52.252;8.780;2023-11-19T00:07:22;99906.41;;;9.08;76.64
77321;BME280;66382;52.252;8.780;2023-11-19T00:09:48;99911.53;;;9.09;76.73
77321;BME280;66382;52.252;8.780;2023-11-19T00:12:13;99905.38;;;9.09;76.63
77321;BME280;66382;52.252;8.780;2023-11-19T00:14:40;99908.88;;;9.09;76.54
77321;BME280;66382;52.252;8.780;2023-11-19T00:17:05;99907.88;;;9.10;76.80
77321;BME280;66382;52.252;8.780;2023-11-19T00:19:31;99901.50;;;9.11;76.81
77321;BME280;66382;52.252;8.780;2023-11-19T00:21:56;99898.00;;;9.11;76.97
77321;BME280;66382;52.252;8.780;2023-11-19T00:24:22;99896.97;;;9.12;77.15
77321;BME280;66382;52.252;8.780;2023-11-19T00:26:47;99902.56;;;9.17;76.73
77321;BME280;66382;52.252;8.780;2023-11-19T00:29:12;99894.34;;;9.18;76.54
77321;BME280;66382;52.252;8.780;2023-11-19T00:31:39;99892.31;;;9.20;77.03
77321;BME280;66382;52.252;8.780;2023-11-19T00:34:05;99884.94;;;9.22;77.10
77321;BME280;66382;52.252;8.780;2023-11-19T00:36:30;99883.72;;;9.25;76.95
77321;BME280;66382;52.252;8.780;2023-11-19T00:38:56;99875.28;;;9.28;77.01
77321;BME280;66382;52.252;8.780;2023-11-19T00:41:21;99874.25;;;9.29;77.16
77321;BME280;66382;52.252;8.780;2023-11-19T00:43:46;99868.72;;;9.31;77.29
77321;BME280;66382;52.252;8.780;2023-11-19T00:46:12;99866.88;;;9.31;76.94
77321;BME280;66382;52.252;8.780;2023-11-19T00:48:39;99859.06;;;9.36;77.32
77321;BME280;66382;52.252;8.780;2023-11-19T00:51:05;99859.91;;;9.37;77.52
77321;BME280;66382;52.252;8.780;2023-11-19T00:53:31;99856.00;;;9.39;77.22
77321;BME280;66382;52.252;8.780;2023-11-19T00:55:56;99848.59;;;9.41;77.23
77321;BME280;66382;52.252;8.780;2023-11-19T00:58:22;99842.84;;;9.44;77.32
77321;BME280;66382;52.252;8.780;2023-11-19T01:00:47;99830.75;;;9.48;77.43
77321;BME280;66382;52.252;8.780;2023-11-19T01:03:13;99832.00;;;9.53;77.35
77321;BME280;66382;52.252;8.780;2023-11-19T01:05:40;99835.50;;;9.53;76.87
77321;BME280;66382;52.252;8.780;2023-11-19T01:08:05;99823.59;;;9.56;77.32
77321;BME280;66382;52.252;8.780;2023-11-19T01:10:30;99826.88;;;9.58;77.19
77321;BME280;66382;52.252;8.780;2023-11-19T01:12:56;99828.53;;;9.59;77.02
77321;BME280;66382;52.252;8.780;2023-11-19T01:15:21;99822.16;;;9.60;77.20
77321;BME280;66382;52.252;8.780;2023-11-19T01:17:47;99828.34;;;9.60;76.86
77321;BME280;66382;52.252;8.780;2023-11-19T01:20:12;99838.00;;;9.61;77.23
77321;BME280;66382;52.252;8.780;2023-11-19T01:22:39;99825.25;;;9.63;77.46
77321;BME280;66382;52.252;8.780;2023-11-19T01:25:06;99821.34;;;9.66;77.39
77321;BME280;66382;52.252;8.780;2023-11-19T01:27:32;99819.72;;;9.65;76.99
77321;BME280;66382;52.252;8.780;2023-11-19T01:29:57;99808.38;;;9.63;77.40
77321;BME280;66382;52.252;8.780;2023-11-19T01:32:23;99809.44;;;9.68;77.65
77321;BME280;66382;52.252;8.780;2023-11-19T01:34:48;99810.06;;;9.71;77.74
77321;BME280;66382;52.252;8.780;2023-11-19T01:37:13;99809.66;;;9.74;77.36
77321;BME280;66382;52.252;8.780;2023-11-19T01:39:43;99811.31;;;9.75;77.21
77321;BME280;66382;52.252;8.780;2023-11-19T01:42:08;99787.88;;;9.77;77.59
77321;BME280;66382;52.252;8.780;2023-11-19T01:44:34;99785.78;;;9.79;77.65
77321;BME280;66382;52.252;8.780;2023-11-19T01:46:59;99778.38;;;9.81;77.48
77321;BME280;66382;52.252;8.780;2023-11-19T01:49:25;99772.03;;;9.82;77.92
77321;BME280;66382;52.252;8.780;2023-11-19T01:51:51;99768.31;;;9.83;77.44
77321;BME280;66382;52.252;8.780;2023-11-19T01:54:17;99768.72;;;9.86;77.87
77321;BME280;66382;52.252;8.780;2023-11-19T01:56:43;99774.69;;;9.88;77.63
77321;BME280;66382;52.252;8.780;2023-11-19T01:59:11;99776.38;;;9.89;77.72
77321;BME280;66382;52.252;8.780;2023-11-19T02:01:37;99767.28;;;9.90;77.79
77321;BME280;66382;52.252;8.780;2023-11-19T02:04:03;99757.22;;;9.93;77.72
77321;BME280;66382;52.252;8.780;2023-11-19T02:06:29;99759.69;;;9.94;77.58
77321;BME280;66382;52.252;8.780;2023-11-19T02:08:56;99756.81;;;9.96;77.56
77321;BME280;66382;52.252;8.780;2023-11-19T02:11:22;99754.94;;;9.96;77.62
77321;BME280;66382;52.252;8.780;2023-11-19T02:13:49;99749.41;;;9.98;77.60
77321;BME280;66382;52.252;8.780;2023-11-19T02:16:14;99743.63;;;10.01;78.56
77321;BME280;66382;52.252;8.780;2023-11-19T02:18:40;99741.56;;;10.03;78.04
77321;BME280;66382;52.252;8.780;2023-11-19T02:21:05;99739.09;;;10.08;77.46
77321;BME280;66382;52.252;8.780;2023-11-19T02:23:31;99731.06;;;10.08;78.38
77321;BME280;66382;52.252;8.780;2023-11-19T02:26:03;99731.50;;;10.11;77.57
77321;BME280;66382;52.252;8.780;2023-11-19T02:28:32;99730.88;;;10.16;77.82
77321;BME280;66382;52.252;8.780;2023-11-19T02:30:58;99723.69;;;10.17;77.84
77321;BME280;66382;52.252;8.780;2023-11-19T02:33:24;99720.78;;;10.18;78.28
77321;BME280;66382;52.252;8.780;2023-11-19T02:35:49;99711.50;;;10.21;77.89
77321;BME280;66382;52.252;8.780;2023-11-19T02:38:14;99710.50;;;10.22;78.04
77321;BME280;66382;52.252;8.780;2023-11-19T02:40:40;99691.50;;;10.23;78.27
77321;BME280;66382;52.252;8.780;2023-11-19T02:43:05;99680.59;;;10.25;78.19
77321;BME280;66382;52.252;8.780;2023-11-19T02:45:32;99683.72;;;10.22;78.14
77321;BME280;66382;52.252;8.780;2023-11-19T02:47:57;99679.38;;;10.27;78.64
77321;BME280;66382;52.252;8.780;2023-11-19T02:50:23;99686.00;;;10.31;78.74
77321;BME280;66382;52.252;8.780;2023-11-19T02:52:48;99678.38;;;10.35;78.34
77321;BME280;66382;52.252;8.780;2023-11-19T02:55:14;99689.69;;;10.37;78.49
77321;BME280;66382;52.252;8.780;2023-11-19T02:57:39;99674.25;;;10.39;78.36
77321;BME280;66382;52.252;8.780;2023-11-19T03:00:06;99686.41;;;10.42;78.85
77321;BME280;66382;52.252;8.780;2023-11-19T03:02:33;99677.94;;;10.45;78.44
77321;BME280;66382;52.252;8.780;2023-11-19T03:04:59;99689.28;;;10.47;78.02
77321;BME280;66382;52.252;8.780;2023-11-19T03:07:24;99686.19;;;10.50;78.61
77321;BME280;66382;52.252;8.780;2023-11-19T03:09:49;99692.16;;;10.52;77.79
77321;BME280;66382;52.252;8.780;2023-11-19T03:12:15;99677.94;;;10.51;78.66
77321;BME280;66382;52.252;8.780;2023-11-19T03:14:40;99677.91;;;10.58;77.86
77321;BME280;66382;52.252;8.780;2023-11-19T03:17:06;99681.84;;;10.62;78.35
77321;BME280;66382;52.252;8.780;2023-11-19T03:19:32;99682.47;;;10.64;78.43
77321;BME280;66382;52.252;8.780;2023-11-19T03:21:58;99671.72;;;10.64;78.25
77321;BME280;66382;52.252;8.780;2023-11-19T03:24:23;99672.34;;;10.66;78.81
77321;BME280;66382;52.252;8.780;2023-11-19T03:26:49;99659.56;;;10.68;78.36
77321;BME280;66382;52.252;8.780;2023-11-19T03:29:14;99663.69;;;10.71;78.29
77321;BME280;66382;52.252;8.780;2023-11-19T03:31:41;99664.28;;;10.73;78.46
77321;BME280;66382;52.252;8.780;2023-11-19T03:34:07;99655.00;;;10.75;77.98
77321;BME280;66382;52.252;8.780;2023-11-19T03:36:34;99652.72;;;10.79;78.53
77321;BME280;66382;52.252;8.780;2023-11-19T03:38:59;99654.16;;;10.82;78.90
77321;BME280;66382;52.252;8.780;2023-11-19T03:41:25;99649.19;;;10.85;78.52
77321;BME280;66382;52.252;8.780;2023-11-19T03:43:50;99642.00;;;10.86;78.91
77321;BME280;66382;52.252;8.780;2023-11-19T03:46:17;99622.34;;;10.92;78.43
77321;BME280;66382;52.252;8.780;2023-11-19T03:48:43;99632.66;;;10.95;78.45
77321;BME280;66382;52.252;8.780;2023-11-19T03:51:08;99641.94;;;10.99;78.47
77321;BME280;66382;52.252;8.780;2023-11-19T03:53:35;99641.31;;;11.04;78.04
77321;BME280;66382;52.252;8.780;2023-11-19T03:56:00;99640.88;;;11.07;78.50
77321;BME280;66382;52.252;8.780;2023-11-19T03:58:26;99642.28;;;11.09;79.29
77321;BME280;66382;52.252;8.780;2023-11-19T04:00:51;99664.16;;;11.13;78.77
77321;BME280;66382;52.252;8.780;2023-11-19T04:03:17;99660.81;;;11.17;78.11
77321;BME280;66382;52.252;8.780;2023-11-19T04:05:42;99656.88;;;11.20;78.68
77321;BME280;66382;52.252;8.780;2023-11-19T04:08:07;99661.84;;;11.23;79.02
77321;BME280;66382;52.252;8.780;2023-11-19T04:10:34;99648.22;;;11.25;79.36
77321;BME280;66382;52.252;8.780;2023-11-19T04:13:00;99663.91;;;11.28;77.71
77321;BME280;66382;52.252;8.780;2023-11-19T04:15:25;99655.63;;;11.29;78.51
77321;BME280;66382;52.252;8.780;2023-11-19T04:17:51;99653.56;;;11.31;78.18
77321;BME280;66382;52.252;8.780;2023-11-19T04:20:16;99642.81;;;11.31;79.19
77321;BME280;66382;52.252;8.780;2023-11-19T04:22:41;99643.19;;;11.35;78.35
77321;BME280;66382;52.252;8.780;2023-11-19T04:25:07;99639.50;;;11.36;78.32
77321;BME280;66382;52.252;8.780;2023-11-19T04:27:34;99653.28;;;11.39;79.61
77321;BME280;66382;52.252;8.780;2023-11-19T04:30:00;99641.31;;;11.42;78.71
77321;BME280;66382;52.252;8.780;2023-11-19T04:32:25;99635.94;;;11.42;78.57
77321;BME280;66382;52.252;8.780;2023-11-19T04:34:51;99642.53;;;11.46;78.25
77321;BME280;66382;52.252;8.780;2023-11-19T04:37:16;99643.34;;;11.47;78.47
77321;BME280;66382;52.252;8.780;2023-11-19T04:39:44;99635.09;;;11.48;78.30
77321;BME280;66382;52.252;8.780;2023-11-19T04:42:09;99641.06;;;11.50;78.37
77321;BME280;66382;52.252;8.780;2023-11-19T04:44:36;99636.53;;;11.51;78.29
77321;BME280;66382;52.252;8.780;2023-11-19T04:47:01;99637.94;;;11.53;78.47
77321;BME280;66382;52.252;8.780;2023-11-19T04:49:27;99630.72;;;11.54;78.69
77321;BME280;66382;52.252;8.780;2023-11-19T04:51:52;99621.03;;;11.53;78.46
77321;BME280;66382;52.252;8.780;2023-11-19T04:54:17;99623.47;;;11.54;79.16
77321;BME280;66382;52.252;8.780;2023-11-19T04:56:45;99618.09;;;11.54;79.04
77321;BME280;66382;52.252;8.780;2023-11-19T04:59:10;99619.78;;;11.55;78.31
77321;BME280;66382;52.252;8.780;2023-11-19T05:01:37;99609.25;;;11.54;78.24
77321;BME280;66382;52.252;8.780;2023-11-19T05:04:03;99600.38;;;11.53;79.06
77321;BME280;66382;52.252;8.780;2023-11-19T05:06:29;99591.09;;;11.49;78.17
77321;BME280;66382;52.252;8.780;2023-11-19T05:08:55;99603.91;;;11.47;79.08
77321;BME280;66382;52.252;8.780;2023-11-19T05:11:20;99609.28;;;11.47;79.03
77321;BME280;66382;52.252;8.780;2023-11-19T05:13:45;99612.56;;;11.49;79.10
77321;BME280;66382;52.252;8.780;2023-11-19T05:16:11;99618.53;;;11.51;78.70
77321;BME280;66382;52.252;8.780;2023-11-19T05:18:38;99628.84;;;11.54;79.09
77321;BME280;66382;52.252;8.780;2023-11-19T05:21:03;99630.50;;;11.55;79.12
77321;BME280;66382;52.252;8.780;2023-11-19T05:23:29;99631.13;;;11.57;79.02
77321;BME280;66382;52.252;8.780;2023-11-19T05:25:54;99622.84;;;11.59;78.77
77321;BME280;66382;52.252;8.780;2023-11-19T05:28:20;99630.69;;;11.60;78.36
77321;BME280;66382;52.252;8.780;2023-11-19T05:30:45;99628.81;;;11.61;78.91
77321;BME280;66382;52.252;8.780;2023-11-19T05:33:11;99633.13;;;11.62;78.91
77321;BME280;66382;52.252;8.780;2023-11-19T05:35:37;99627.34;;;11.65;79.36
77321;BME280;66382;52.252;8.780;2023-11-19T05:38:03;99628.59;;;11.62;78.71
77321;BME280;66382;52.252;8.780;2023-11-19T05:40:28;99629.19;;;11.65;79.17
77321;BME280;66382;52.252;8.780;2023-11-19T05:42:54;99612.06;;;11.66;78.32
77321;BME280;66382;52.252;8.780;2023-11-19T05:45:19;99613.69;;;11.67;78.10
77321;BME280;66382;52.252;8.780;2023-11-19T05:47:44;99615.34;;;11.68;79.13
77321;BME280;66382;52.252;8.780;2023-11-19T05:50:10;99618.44;;;11.65;78.51
77321;BME280;66382;52.252;8.780;2023-11-19T05:52:37;99633.31;;;11.67;78.64
77321;BME280;66382;52.252;8.780;2023-11-19T05:55:03;99626.91;;;11.68;79.08
77321;BME280;66382;52.252;8.780;2023-11-19T05:57:28;99620.72;;;11.68;78.09
77321;BME280;66382;52.252;8.780;2023-11-19T05:59:54;99627.13;;;11.67;77.92
77321;BME280;66382;52.252;8.780;2023-11-19T06:02:19;99624.44;;;11.67;78.38
77321;BME280;66382;52.252;8.780;2023-11-19T06:04:45;99624.44;;;11.67;79.11
77321;BME280;66382;52.252;8.780;2023-11-19T06:07:10;99636.22;;;11.66;78.66
77321;BME280;66382;52.252;8.780;2023-11-19T06:09:37;99643.47;;;11.65;78.47
77321;BME280;66382;52.252;8.780;2023-11-19T06:12:03;99634.56;;;11.65;79.25
77321;BME280;66382;52.252;8.780;2023-11-19T06:14:28;99640.97;;;11.63;78.07
77321;BME280;66382;52.252;8.780;2023-11-19T06:16:54;99649.22;;;11.62;78.47
77321;BME280;66382;52.252;8.780;2023-11-19T06:19:19;99644.09;;;11.60;78.50
77321;BME280;66382;52.252;8.780;2023-11-19T06:21:45;99643.88;;;11.62;78.86
77321;BME280;66382;52.252;8.780;2023-11-19T06:24:10;99648.41;;;11.61;77.98
77321;BME280;66382;52.252;8.780;2023-11-19T06:26:37;99659.41;;;11.60;77.72
77321;BME280;66382;52.252;8.780;2023-11-19T06:29:02;99651.53;;;11.58;77.72
77321;BME280;66382;52.252;8.780;2023-11-19T06:31:28;99646.00;;;11.53;77.52
77321;BME280;66382;52.252;8.780;2023-11-19T06:33:53;99650.97;;;11.50;77.30
77321;BME280;66382;52.252;8.780;2023-11-19T06:36:19;99648.09;;;11.45;76.98
77321;BME280;66382;52.252;8.780;2023-11-19T06:38:44;99649.78;;;11.39;77.83
77321;BME280;66382;52.252;8.780;2023-11-19T06:41:09;99647.75;;;11.34;78.02
77321;BME280;66382;52.252;8.780;2023-11-19T06:43:37;99649.00;;;11.32;78.30
77321;BME280;66382;52.252;8.780;2023-11-19T06:46:03;99662.84;;;11.29;77.49
77321;BME280;66382;52.252;8.780;2023-11-19T06:48:29;99672.78;;;11.28;77.29
77321;BME280;66382;52.252;8.780;2023-11-19T06:50:54;99671.94;;;11.28;77.23
77321;BME280;66382;52.252;8.780;2023-11-19T06:53:19;99675.44;;;11.28;77.38
77321;BME280;66382;52.252;8.780;2023-11-19T06:55:45;99677.09;;;11.29;77.15
77321;BME280;66382;52.252;8.780;2023-11-19T06:58:10;99669.44;;;11.33;77.89
77321;BME280;66382;52.252;8.780;2023-11-19T07:00:37;99688.22;;;11.33;78.15
77321;BME280;66382;52.252;8.780;2023-11-19T07:03:02;99685.13;;;11.29;77.90
77321;BME280;66382;52.252;8.780;2023-11-19T07:05:28;99688.22;;;11.33;78.16
77321;BME280;66382;52.252;8.780;2023-11-19T07:07:53;99688.63;;;11.30;77.89
77321;BME280;66382;52.252;8.780;2023-11-19T07:10:19;99697.09;;;11.33;77.60
77321;BME280;66382;52.252;8.780;2023-11-19T07:12:44;99694.41;;;11.33;77.52
77321;BME280;66382;52.252;8.780;2023-11-19T07:15:10;99691.13;;;11.31;77.81
77321;BME280;66382;52.252;8.780;2023-11-19T07:17:38;99706.78;;;11.34;77.70
77321;BME280;66382;52.252;8.780;2023-11-19T07:20:04;99700.41;;;11.35;78.05
77321;BME280;66382;52.252;8.780;2023-11-19T07:22:30;99713.81;;;11.35;77.59
77321;BME280;66382;52.252;8.780;2023-11-19T07:24:55;99707.59;;;11.35;77.43
77321;BME280;66382;52.252;8.780;2023-11-19T07:27:21;99706.59;;;11.36;77.59
77321;BME280;66382;52.252;8.780;2023-11-19T07:29:46;99708.44;;;11.35;77.64
77321;BME280;66382;52.252;8.780;2023-11-19T07:32:11;99699.56;;;11.35;76.72
77321;BME280;66382;52.252;8.780;2023-11-19T07:34:38;99698.53;;;11.36;76.99
77321;BME280;66382;52.252;8.780;2023-11-19T07:37:04;99710.09;;;11.36;76.72
77321;BME280;66382;52.252;8.780;2023-11-19T07:39:29;99693.16;;;11.36;77.41
77321;BME280;66382;52.252;8.780;2023-11-19T07:41:55;99697.47;;;11.37;76.44
77321;BME280;66382;52.252;8.780;2023-11-19T07:44:21;99709.06;;;11.37;76.94
77321;BME280;66382;52.252;8.780;2023-11-19T07:46:46;99713.38;;;11.38;76.31
77321;BME280;66382;52.252;8.780;2023-11-19T07:49:12;99713.38;;;11.38;76.41
77321;BME280;66382;52.252;8.780;2023-11-19T07:51:39;99720.63;;;11.38;76.53
77321;BME280;66382;52.252;8.780;2023-11-19T07:54:05;99724.94;;;11.39;76.02
77321;BME280;66382;52.252;8.780;2023-11-19T07:56:30;99720.38;;;11.39;76.37
77321;BME280;66382;52.252;8.780;2023-11-19T07:58:56;99725.56;;;11.41;77.26
77321;BME280;66382;52.252;8.780;2023-11-19T08:01:22;99724.09;;;11.45;76.49
77321;BME280;66382;52.252;8.780;2023-11-19T08:03:47;99727.00;;;11.44;76.34
77321;BME280;66382;52.252;8.780;2023-11-19T08:06:13;99735.84;;;11.44;76.35
77321;BME280;66382;52.252;8.780;2023-11-19T08:08:39;99740.19;;;11.45;76.47
77321;BME280;66382;52.252;8.780;2023-11-19T08:11:05;99743.09;;;11.44;76.73
77321;BME280;66382;52.252;8.780;2023-11-19T08:13:30;99737.72;;;11.44;76.70
77321;BME280;66382;52.252;8.780;2023-11-19T08:15:56;99743.28;;;11.42;76.14
77321;BME280;66382;52.252;8.780;2023-11-19T08:18:21;99742.72;;;11.40;76.33
77321;BME280;66382;52.252;8.780;2023-11-19T08:20:47;99746.03;;;11.35;76.23
77321;BME280;66382;52.252;8.780;2023-11-19T08:23:12;99746.41;;;11.39;77.17
77321;BME280;66382;52.252;8.780;2023-11-19T08:25:39;99751.78;;;11.39;76.93
77321;BME280;66382;52.252;8.780;2023-11-19T08:28:04;99753.44;;;11.40;76.14
77321;BME280;66382;52.252;8.780;2023-11-19T08:30:30;99755.28;;;11.39;76.56
77321;BME280;66382;52.252;8.780;2023-11-19T08:32:55;99761.06;;;11.43;77.04
77321;BME280;66382;52.252;8.780;2023-11-19T08:35:21;99755.69;;;11.43;76.03
77321;BME280;66382;52.252;8.780;2023-11-19T08:37:46;99759.00;;;11.45;76.71
77321;BME280;66382;52.252;8.780;2023-11-19T08:40:12;99762.50;;;11.46;76.81
77321;BME280;66382;52.252;8.780;2023-11-19T08:42:39;99768.47;;;11.48;76.75
77321;BME280;66382;52.252;8.780;2023-11-19T08:45:05;99756.31;;;11.45;76.65
77321;BME280;66382;52.252;8.780;2023-11-19T08:47:31;99767.22;;;11.50;76.08
77321;BME280;66382;52.252;8.780;2023-11-19T08:49:56;99769.47;;;11.53;76.13
77321;BME280;66382;52.252;8.780;2023-11-19T08:52:21;99748.19;;;11.58;76.46
77321;BME280;66382;52.252;8.780;2023-11-19T08:54:47;99760.97;;;11.63;76.88
77321;BME280;66382;52.252;8.780;2023-11-19T08:57:12;99762.59;;;11.71;76.72
77321;BME280;66382;52.252;8.780;2023-11-19T08:59:39;99762.94;;;11.81;77.14
77321;BME280;66382;52.252;8.780;2023-11-19T09:02:05;99756.94;;;11.86;76.13
77321;BME280;66382;52.252;8.780;2023-11-19T09:04:30;99763.34;;;11.91;76.31
77321;BME280;66382;52.252;8.780;2023-11-19T09:06:57;99767.63;;;11.99;76.27
77321;BME280;66382;52.252;8.780;2023-11-19T09:09:22;99764.28;;;12.03;75.82
77321;BME280;66382;52.252;8.780;2023-11-19T09:11:48;99782.66;;;12.07;76.46
77321;BME280;66382;52.252;8.780;2023-11-19T09:14:13;99780.81;;;12.07;76.08
77321;BME280;66382;52.252;8.780;2023-11-19T09:16:40;99774.56;;;12.13;76.06
77321;BME280;66382;52.252;8.780;2023-11-19T09:19:05;99797.66;;;12.21;76.30
77321;BME280;66382;52.252;8.780;2023-11-19T09:21:31;99783.81;;;12.24;75.54
77321;BME280;66382;52.252;8.780;2023-11-19T09:23:56;99791.66;;;12.25;75.61
77321;BME280;66382;52.252;8.780;2023-11-19T09:26:22;99792.69;;;12.24;75.69
77321;BME280;66382;52.252;8.780;2023-11-19T09:28:47;99791.47;;;12.20;75.51
77321;BME280;66382;52.252;8.780;2023-11-19T09:31:14;99797.13;;;12.12;75.16
77321;BME280;66382;52.252;8.780;2023-11-19T09:33:41;99805.63;;;12.09;75.61
77321;BME280;66382;52.252;8.780;2023-11-19T09:36:07;99797.34;;;12.04;75.29
77321;BME280;66382;52.252;8.780;2023-11-19T09:38:32;99788.28;;;11.98;75.59
77321;BME280;66382;52.252;8.780;2023-11-19T09:40:58;99799.28;;;11.97;75.90
77321;BME280;66382;52.252;8.780;2023-11-19T09:43:24;99797.22;;;11.92;75.73
77321;BME280;66382;52.252;8.780;2023-11-19T09:45:50;99810.03;;;11.90;75.21
77321;BME280;66382;52.252;8.780;2023-11-19T09:48:16;99811.06;;;11.89;76.00
77321;BME280;66382;52.252;8.780;2023-11-19T09:50:44;99804.66;;;11.90;75.36
77321;BME280;66382;52.252;8.780;2023-11-19T09:53:09;99816.84;;;11.93;76.09
77321;BME280;66382;52.252;8.780;2023-11-19T09:55:35;99805.91;;;11.94;76.08
77321;BME280;66382;52.252;8.780;2023-11-19T09:58:01;99800.13;;;11.91;76.15
77321;BME280;66382;52.252;8.780;2023-11-19T10:00:27;99806.47;;;11.96;75.60
77321;BME280;66382;52.252;8.780;2023-11-19T10:02:54;99808.75;;;11.99;75.66
77321;BME280;66382;52.252;8.780;2023-11-19T10:05:20;99795.91;;;12.01;76.16
77321;BME280;66382;52.252;8.780;2023-11-19T10:07:48;99792.22;;;12.02;76.22
77321;BME280;66382;52.252;8.780;2023-11-19T10:10:14;99798.19;;;12.04;76.19
77321;BME280;66382;52.252;8.780;2023-11-19T10:12:39;99800.66;;;12.06;75.47
77321;BME280;66382;52.252;8.780;2023-11-19T10:15:06;99790.13;;;12.04;75.33
77321;BME280;66382;52.252;8.780;2023-11-19T10:17:36;99796.53;;;12.03;76.29
77321;BME280;66382;52.252;8.780;2023-11-19T10:20:02;99797.34;;;12.04;76.11
77321;BME280;66382;52.252;8.780;2023-11-19T10:22:27;99793.19;;;12.08;75.53
77321;BME280;66382;52.252;8.780;2023-11-19T10:24:54;99795.03;;;12.14;76.23
77321;BME280;66382;52.252;8.780;2023-11-19T10:27:20;99797.66;;;12.21;75.89
77321;BME280;66382;52.252;8.780;2023-11-19T10:29:46;99789.38;;;12.29;76.28
77321;BME280;66382;52.252;8.780;2023-11-19T10:32:12;99788.59;;;12.47;76.21
77321;BME280;66382;52.252;8.780;2023-11-19T10:34:37;99790.75;;;12.63;76.44
77321;BME280;66382;52.252;8.780;2023-11-19T10:37:03;99776.91;;;12.85;76.59
77321;BME280;66382;52.252;8.780;2023-11-19T10:39:51;99783.00;;;12.99;75.70
77321;BME280;66382;52.252;8.780;2023-11-19T10:42:18;99783.00;;;12.99;75.35
77321;BME280;66382;52.252;8.780;2023-11-19T10:44:44;99785.53;;;12.94;74.92
77321;BME280;66382;52.252;8.780;2023-11-19T10:47:10;99784.38;;;12.83;74.71
77321;BME280;66382;52.252;8.780;2023-11-19T10:49:37;99786.09;;;12.77;74.69
77321;BME280;66382;52.252;8.780;2023-11-19T10:52:03;99787.56;;;12.73;74.85
77321;BME280;66382;52.252;8.780;2023-11-19T10:54:30;99787.41;;;12.68;74.68
77321;BME280;66382;52.252;8.780;2023-11-19T10:56:59;99783.50;;;12.64;74.49
77321;BME280;66382;52.252;8.780;2023-11-19T10:59:28;99787.69;;;12.60;74.56
77321;BME280;66382;52.252;8.780;2023-11-19T11:01:56;99771.75;;;12.58;74.71
77321;BME280;66382;52.252;8.780;2023-11-19T11:04:23;99780.66;;;12.59;75.36
77321;BME280;66382;52.252;8.780;2023-11-19T11:06:50;99775.66;;;12.62;74.78
77321;BME280;66382;52.252;8.780;2023-11-19T11:09:16;99760.75;;;12.66;75.06
77321;BME280;66382;52.252;8.780;2023-11-19T11:11:46;99768.56;;;12.68;75.14
77321;BME280;66382;52.252;8.780;2023-11-19T11:14:12;99766.31;;;12.65;74.45
77321;BME280;66382;52.252;8.780;2023-11-19T11:16:42;99757.50;;;12.58;74.15
77321;BME280;66382;52.252;8.780;2023-11-19T11:19:08;99755.47;;;12.53;74.62
77321;BME280;66382;52.252;8.780;2023-11-19T11:21:36;99761.50;;;12.48;74.44
77321;BME280;66382;52.252;8.780;2023-11-19T11:24:18;99759.84;;;12.47;74.51
77321;BME280;66382;52.252;8.780;2023-11-19T11:27:20;99754.03;;;12.51;75.00
77321;BME280;66382;52.252;8.780;2023-11-19T11:30:01;99759.72;;;12.61;74.85
77321;BME280;66382;52.252;8.780;2023-11-19T11:32:35;99753.03;;;12.70;75.18
77321;BME280;66382;52.252;8.780;2023-11-19T11:35:18;99765.84;;;12.75;74.87
77321;BME280;66382;52.252;8.780;2023-11-19T11:37:50;99760.81;;;12.78;74.76
77321;BME280;66382;52.252;8.780;2023-11-19T11:40:18;99755.84;;;12.82;74.72
77321;BME280;66382;52.252;8.780;2023-11-19T11:42:43;99757.41;;;12.89;74.86
77321;BME280;66382;52.252;8.780;2023-11-19T11:45:10;99755.94;;;12.94;74.94
77321;BME280;66382;52.252;8.780;2023-11-19T11:48:12;99766.69;;;12.94;74.68
77321;BME280;66382;52.252;8.780;2023-11-19T11:50:51;99760.41;;;12.81;74.53
77321;BME280;66382;52.252;8.780;2023-11-19T11:53:18;99769.56;;;12.74;74.16
77321;BME280;66382;52.252;8.780;2023-11-19T11:55:59;99764.69;;;12.64;74.46
77321;BME280;66382;52.252;8.780;2023-11-19T11:58:32;99769.75;;;12.54;74.65
77321;BME280;66382;52.252;8.780;2023-11-19T12:01:01;99759.47;;;12.44;74.71
77321;BME280;66382;52.252;8.780;2023-11-19T12:03:29;99763.22;;;12.36;74.85
77321;BME280;66382;52.252;8.780;2023-11-19T12:05:55;99766.59;;;12.32;74.90
77321;BME280;66382;52.252;8.780;2023-11-19T12:08:24;99768.06;;;12.27;75.13
77321;BME280;66382;52.252;8.780;2023-11-19T12:10:52;99759.19;;;12.27;75.35
77321;BME280;66382;52.252;8.780;2023-11-19T12:13:19;99752.16;;;12.26;74.92
77321;BME280;66382;52.252;8.780;2023-11-19T12:16:07;99753.41;;;12.23;75.08
77321;BME280;66382;52.252;8.780;2023-11-19T12:18:33;99761.91;;;12.20;75.51
77321;BME280;66382;52.252;8.780;2023-11-19T12:21:00;99749.53;;;12.19;75.16
77321;BME280;66382;52.252;8.780;2023-11-19T12:23:26;99744.16;;;12.19;75.52
77321;BME280;66382;52.252;8.780;2023-11-19T12:25:52;99747.66;;;12.20;75.38
77321;BME280;66382;52.252;8.780;2023-11-19T12:28:17;99750.72;;;12.23;75.93
77321;BME280;66382;52.252;8.780;2023-11-19T12:30:43;99744.75;;;12.21;75.58
77321;BME280;66382;52.252;8.780;2023-11-19T12:33:10;99737.53;;;12.22;75.72
77321;BME280;66382;52.252;8.780;2023-11-19T12:35:39;99740.22;;;12.22;75.54
77321;BME280;66382;52.252;8.780;2023-11-19T12:38:05;99741.84;;;12.23;75.69
77321;BME280;66382;52.252;8.780;2023-11-19T12:40:30;99732.56;;;12.19;75.37
77321;BME280;66382;52.252;8.780;2023-11-19T12:42:56;99745.59;;;12.22;75.26
77321;BME280;66382;52.252;8.780;2023-11-19T12:45:22;99739.38;;;12.21;75.20
77321;BME280;66382;52.252;8.780;2023-11-19T12:47:48;99742.91;;;12.22;75.14
77321;BME280;66382;52.252;8.780;2023-11-19T12:50:13;99743.09;;;12.20;74.86
77321;BME280;66382;52.252;8.780;2023-11-19T12:52:41;99743.09;;;12.20;75.50
77321;BME280;66382;52.252;8.780;2023-11-19T12:55:24;99731.97;;;12.17;75.70
77321;BME280;66382;52.252;8.780;2023-11-19T12:57:50;99729.94;;;12.12;75.52